2G9

Somerset County Airport

Somerset, Pennsylvania, USA
METAR K2G9 140715Z AUTO 00000KT 10SM CLR 00/M02 A3027 RMK AO2
Observed Flight Rules
Dec-14 @ 07:15 UTC (27 minutes ago) Visual Flight Rules
Visibility Clouds
10 miles
  • Clear skies
Temperatures Readings
Current 0°C / 32°F
Dewpoint -2°C / 28°F
Humidity 87%
Altimeter 30.27" Hg
Pressure 1025 hPa
Elevation 693
METAR K2G9 140715Z AUTO 00000KT 10SM CLR 00/M02 A3027 RMK AO2
Observed Flight Rules
Dec-14 @ 07:15 UTC
(27 minutes ago)
VFR
Clouds
  • Clear skies
Temperature Dewpoint
0°C / 32°F -2°C / 28°F
Humidity Altimeter Pressure
87% 30.27" Hg 1025 hPa